Time;durP1;ratioP1;P1;durP2;ratioP2;P2;SDS_P1;SDS_P2;PMS_P1;PMS_P2;Temp;Humidity;BMP_temperature;BMP_pressure;BME280_temperature;BME280_humidity;BME280_pressure;Samples;Min_cycle;Max_cycle;Signal;HPM_P1;HPM_P2
2021/05/12 00:00:13;;;;;;;31.67;25.25;;;;;;;14.58;73.70;99708.16;4996516;28;20978;-68
2021/05/12 00:02:40;;;;;;;30.40;25.80;;;;;;;14.56;73.67;99713.31;4996379;28;20062;-68
2021/05/12 00:05:10;;;;;;;31.33;25.30;;;;;;;14.56;73.66;99710.50;4983099;28;20050;-68
2021/05/12 00:07:37;;;;;;;25.77;22.23;;;;;;;14.58;73.32;99707.34;4985927;28;20050;-68
2021/05/12 00:10:05;;;;;;;30.02;24.98;;;;;;;14.54;73.42;99698.81;4996197;28;20050;-68
2021/05/12 00:12:34;;;;;;;31.20;24.50;;;;;;;14.54;73.10;99700.81;4996118;28;20054;-68
2021/05/12 00:15:01;;;;;;;30.27;24.35;;;;;;;14.54;73.16;99698.00;4984741;28;20055;-68
2021/05/12 00:17:29;;;;;;;27.70;24.45;;;;;;;14.53;72.85;99696.38;4985009;28;20061;-68
2021/05/12 00:19:58;;;;;;;28.83;23.80;;;;;;;14.51;72.85;99699.56;4996056;28;20161;-68
2021/05/12 00:25:11;;;;;;;28.17;23.30;;;;;;;14.50;72.70;99703.50;4994818;28;20065;-68
2021/05/12 00:27:40;;;;;;;28.00;23.20;;;;;;;14.48;73.19;99702.25;4995385;28;20057;-68
2021/05/12 00:30:10;;;;;;;28.67;23.42;;;;;;;14.46;72.98;99699.81;4995774;28;20481;-68
2021/05/12 00:32:37;;;;;;;28.35;25.17;;;;;;;14.44;73.08;99699.34;4995485;28;20046;-68
2021/05/12 00:35:05;;;;;;;32.80;25.15;;;;;;;14.45;73.03;99705.75;4981133;28;20054;-68
2021/05/12 00:37:32;;;;;;;28.77;24.67;;;;;;;14.42;72.88;99715.69;4976167;28;20062;-68
2021/05/12 00:39:59;;;;;;;29.23;24.80;;;;;;;14.44;73.36;99710.56;4976101;28;20465;-69
2021/05/12 00:42:29;;;;;;;31.48;25.50;;;;;;;14.44;73.11;99716.16;4976094;28;20082;-68
2021/05/12 00:44:57;;;;;;;31.58;26.38;;;;;;;14.44;72.89;99710.56;5027350;23;20053;-68
2021/05/12 00:47:27;;;;;;;28.45;24.75;;;;;;;14.44;72.65;99713.34;5034590;28;20076;-68
2021/05/12 00:49:55;;;;;;;31.48;26.00;;;;;;;14.44;72.94;99712.56;5034674;28;20054;-68
2021/05/12 00:52:22;;;;;;;29.85;26.08;;;;;;;14.42;72.62;99712.91;5034885;28;20053;-68
2021/05/12 00:54:49;;;;;;;30.48;25.02;;;;;;;14.43;72.58;99711.75;5011641;28;20051;-68
2021/05/12 00:57:17;;;;;;;32.72;26.60;;;;;;;14.39;72.86;99714.44;4995292;28;20053;-68
2021/05/12 00:59:50;;;;;;;34.00;26.27;;;;;;;14.37;72.72;99715.97;4995599;28;20408;-68
2021/05/12 01:02:18;;;;;;;30.70;27.30;;;;;;;14.35;72.88;99707.13;4995649;28;20054;-68
2021/05/12 01:04:46;;;;;;;31.50;27.45;;;;;;;14.35;72.98;99715.53;4996701;28;20058;-68
2021/05/12 01:07:13;;;;;;;32.72;26.75;;;;;;;14.31;73.08;99717.41;5014594;28;20054;-68
2021/05/12 01:09:40;;;;;;;33.97;27.85;;;;;;;14.29;72.67;99720.56;5014938;28;20475;-68
2021/05/12 01:12:07;;;;;;;35.85;27.67;;;;;;;14.29;72.98;99725.34;5021629;23;20530;-68
2021/05/12 01:14:34;;;;;;;31.33;26.85;;;;;;;14.27;72.84;99722.91;4975731;28;20065;-68
2021/05/12 01:17:04;;;;;;;37.63;29.13;;;;;;;14.27;72.99;99727.69;4975597;28;20055;-68
2021/05/12 01:19:33;;;;;;;;;;;;;;;14.24;72.52;99722.78;4975715;28;20059;-68
2021/05/12 01:22:01;;;;;;;36.17;28.63;;;;;;;14.20;72.89;99722.72;4975548;28;19929;-68
2021/05/12 01:24:28;;;;;;;35.90;29.35;;;;;;;14.19;72.92;99724.72;4978497;28;20062;-68
2021/05/12 01:26:55;;;;;;;35.47;29.15;;;;;;;14.16;73.01;99714.22;4988779;28;20388;-68
2021/05/12 01:29:23;;;;;;;36.58;29.05;;;;;;;14.16;73.18;99717.00;4975008;28;20070;-68
2021/05/12 01:31:52;;;;;;;33.88;29.13;;;;;;;14.17;73.17;99718.66;4975673;28;20051;-68
2021/05/12 01:34:21;;;;;;;34.50;29.83;;;;;;;14.18;73.09;99723.06;4982867;28;20050;-68
2021/05/12 01:36:48;;;;;;;39.03;29.88;;;;;;;14.19;72.46;99721.91;4994536;28;20590;-68
2021/05/12 01:39:17;;;;;;;36.67;29.65;;;;;;;14.19;72.21;99718.28;4993541;28;20069;-68
2021/05/12 01:41:45;;;;;;;32.93;29.23;;;;;;;14.17;72.60;99723.41;4994898;28;20061;-68
2021/05/12 01:44:13;;;;;;;37.33;29.10;;;;;;;14.17;72.51;99717.81;4986501;28;20054;-68
2021/05/12 01:46:41;;;;;;;37.13;31.02;;;;;;;14.12;72.70;99716.09;4974824;28;20046;-68
2021/05/12 01:49:09;;;;;;;34.92;29.63;;;;;;;14.14;72.58;99719.34;4974604;28;20055;-68
2021/05/12 01:51:37;;;;;;;38.40;30.77;;;;;;;14.15;72.48;99718.19;4974903;28;20051;-68
2021/05/12 01:54:07;;;;;;;39.08;30.23;;;;;;;14.14;72.15;99730.56;4979398;28;20077;-68
2021/05/12 01:56:35;;;;;;;;;;;;;;;14.09;72.23;99714.00;4993510;28;20488;-68
2021/05/12 01:59:03;;;;;;;41.13;29.30;;;;;;;14.04;72.38;99717.06;4974589;28;19922;-68
2021/05/12 02:01:30;;;;;;;38.42;30.08;;;;;;;14.03;72.89;99723.84;4974626;28;20054;-68
2021/05/12 02:04:02;;;;;;;40.05;30.77;;;;;;;14.02;72.66;99722.19;4978612;28;20054;-68
2021/05/12 02:06:31;;;;;;;45.13;32.35;;;;;;;14.04;72.80;99728.25;4993718;28;20054;-68
2021/05/12 02:09:01;;;;;;;39.58;31.98;;;;;;;14.06;72.67;99728.72;4994066;28;20059;-68
2021/05/12 02:11:28;;;;;;;40.83;32.03;;;;;;;14.07;72.20;99726.72;4994109;28;20054;-68
2021/05/12 02:13:57;;;;;;;40.10;32.63;;;;;;;13.98;72.84;99729.69;4989371;28;20063;-69
2021/05/12 02:16:23;;;;;;;42.47;33.80;;;;;;;14.00;72.52;99727.34;4974300;28;20054;-68
2021/05/12 02:18:50;;;;;;;39.92;33.05;;;;;;;14.01;72.59;99732.59;4974335;28;20063;-68
2021/05/12 02:21:17;;;;;;;39.10;32.28;;;;;;;14.04;72.31;99730.25;4974519;28;20416;-68
2021/05/12 02:23:44;;;;;;;43.78;33.00;;;;;;;14.04;72.29;99736.66;4975724;28;20057;-68
2021/05/12 02:26:11;;;;;;;42.55;33.40;;;;;;;14.01;72.80;99742.97;4990099;28;20054;-68
2021/05/12 02:28:38;;;;;;;44.25;33.83;;;;;;;14.01;72.11;99738.19;4974505;28;20051;-68
2021/05/12 02:31:06;;;;;;;41.13;34.08;;;;;;;13.96;72.21;99743.22;4974234;28;20062;-68
2021/05/12 02:33:33;;;;;;;47.30;36.20;;;;;;;13.95;72.09;99747.19;4976032;28;20484;-68
2021/05/12 02:36:00;;;;;;;47.35;33.65;;;;;;;13.95;72.51;99748.00;4993556;28;20492;-68
2021/05/12 02:38:27;;;;;;;48.58;35.67;;;;;;;13.95;72.26;99742.41;4993689;28;20054;-68
2021/05/12 02:40:54;;;;;;;47.38;35.75;;;;;;;13.95;72.54;99741.59;4993546;28;20054;-68
2021/05/12 02:43:21;;;;;;;46.95;35.88;;;;;;;13.98;71.89;99732.47;4993004;28;20058;-68
2021/05/12 02:45:48;;;;;;;45.47;34.75;;;;;;;13.99;71.64;99736.94;4974387;28;20066;-68
2021/05/12 02:48:16;;;;;;;44.38;34.33;;;;;;;14.00;71.52;99744.13;4973925;28;20055;-68
2021/05/12 02:50:43;;;;;;;42.03;33.88;;;;;;;14.02;71.67;99736.19;4980275;28;20055;-68
2021/05/12 02:53:16;;;;;;;41.33;33.33;;;;;;;14.00;71.87;99738.53;4980552;28;20142;-68
2021/05/12 02:55:43;;;;;;;44.05;35.72;;;;;;;14.00;71.92;99738.53;4998033;28;20488;-68
2021/05/12 02:58:10;;;;;;;47.80;37.28;;;;;;;13.98;71.51;99746.47;4999926;28;20050;-68
2021/05/12 03:00:39;;;;;;;54.25;38.53;;;;;;;13.95;71.81;99741.59;4995010;23;20512;-68
2021/05/12 03:03:07;;;;;;;53.30;38.72;;;;;;;13.96;71.25;99749.66;4980240;28;20050;-68
2021/05/12 03:05:39;;;;;;;50.88;38.33;;;;;;;13.88;71.81;99746.97;4997117;28;20061;-68
2021/05/12 03:08:07;;;;;;;50.92;40.05;;;;;;;13.85;71.79;99747.69;4999562;28;20047;-68
2021/05/12 03:10:34;;;;;;;53.03;40.67;;;;;;;13.81;72.17;99742.78;5000021;28;20498;-68
2021/05/12 03:13:02;;;;;;;52.30;39.10;;;;;;;13.79;72.33;99747.94;4999680;28;20061;-68
2021/05/12 03:15:30;;;;;;;50.70;37.47;;;;;;;13.73;72.29;99743.78;4983161;28;20074;-68
2021/05/12 03:17:57;;;;;;;52.92;40.58;;;;;;;13.64;72.65;99743.06;4980259;28;20408;-68
2021/05/12 03:20:26;;;;;;;50.28;36.83;;;;;;;13.62;72.14;99750.19;4979916;28;20070;-68
2021/05/12 03:22:54;;;;;;;52.83;39.97;;;;;;;13.58;72.25;99744.47;4979691;28;20392;-68
2021/05/12 03:25:22;;;;;;;47.63;35.28;;;;;;;13.47;72.26;99744.16;4981041;28;20138;-68
2021/05/12 03:27:49;;;;;;;52.33;37.53;;;;;;;13.42;72.75;99750.00;4979736;28;20046;-68
2021/05/12 03:30:19;;;;;;;47.88;36.20;;;;;;;13.39;72.85;99750.69;4980139;28;20059;-68
2021/05/12 03:32:46;;;;;;;46.20;35.00;;;;;;;13.36;72.42;99748.63;4981496;28;20051;-68
2021/05/12 03:35:13;;;;;;;50.97;36.20;;;;;;;13.29;73.00;99746.41;4994912;28;20050;-68
2021/05/12 03:37:40;;;;;;;49.08;35.67;;;;;;;13.25;72.81;99748.25;4987923;28;20051;-68
2021/05/12 03:40:11;;;;;;;55.72;35.35;;;;;;;13.24;72.63;99754.19;4999666;28;20046;-68
2021/05/12 03:42:38;;;;;;;46.53;34.65;;;;;;;13.16;72.84;99758.72;4990082;28;20050;-68
2021/05/12 03:45:07;;;;;;;48.72;35.35;;;;;;;13.12;72.80;99767.00;4979628;28;20050;-68
2021/05/12 03:47:34;;;;;;;48.15;35.13;;;;;;;13.10;73.16;99762.91;4979756;28;20054;-68
2021/05/12 03:50:01;;;;;;;46.72;33.85;;;;;;;13.10;72.69;99762.91;4979368;28;20058;-68
2021/05/12 03:52:28;;;;;;;47.75;34.67;;;;;;;13.10;72.78;99754.50;4980943;28;20429;-68
2021/05/12 03:54:55;;;;;;;50.13;36.72;;;;;;;13.07;73.01;99758.03;4979986;28;20051;-68
2021/05/12 03:57:23;;;;;;;45.40;33.40;;;;;;;13.05;73.05;99758.34;4979814;28;20069;-68
2021/05/12 03:59:50;;;;;;;45.88;34.60;;;;;;;13.05;72.63;99757.56;4979223;28;20069;-68
2021/05/12 04:02:16;;;;;;;50.10;35.85;;;;;;;13.03;72.68;99763.47;4981057;28;20061;-68
2021/05/12 04:04:43;;;;;;;47.90;34.63;;;;;;;13.03;72.48;99766.28;4996221;28;20057;-68
2021/05/12 04:07:10;;;;;;;46.25;33.97;;;;;;;13.02;72.32;99763.81;4996061;28;20055;-68
2021/05/12 04:09:37;;;;;;;46.00;34.22;;;;;;;13.02;72.46;99772.22;4996350;28;20492;-68
2021/05/12 04:12:05;;;;;;;47.30;34.10;;;;;;;12.97;72.26;99776.06;4992361;28;20054;-68
2021/05/12 04:14:33;;;;;;;47.17;33.85;;;;;;;12.91;72.35;99775.47;4976337;28;20059;-68
2021/05/12 04:17:00;;;;;;;47.15;32.70;;;;;;;12.84;71.99;99771.63;4976200;28;20051;-68
2021/05/12 04:19:27;;;;;;;42.35;29.42;;;;;;;12.82;71.58;99779.53;4976701;28;20059;-68
2021/05/12 04:21:53;;;;;;;40.10;26.23;;;;;;;12.81;71.49;99781.53;4977150;28;20413;-68
2021/05/12 04:24:21;;;;;;;37.45;27.63;;;;;;;12.74;71.23;99784.88;4985535;28;20054;-68
2021/05/12 04:26:47;;;;;;;34.88;25.55;;;;;;;12.75;71.13;99780.13;4980746;28;20047;-68
2021/05/12 04:29:15;;;;;;;34.22;26.77;;;;;;;12.73;70.73;99779.66;4976402;28;20055;-68
2021/05/12 04:31:43;;;;;;;33.85;22.63;;;;;;;12.75;70.22;99785.69;4975643;28;20086;-68
2021/05/12 04:34:10;;;;;;;32.40;25.67;;;;;;;12.73;70.40;99799.19;4976419;28;20051;-68
2021/05/12 04:36:38;;;;;;;34.70;23.83;;;;;;;12.70;70.49;99795.09;4981245;28;20484;-68
2021/05/12 04:39:06;;;;;;;34.42;23.52;;;;;;;12.69;69.73;99792.66;4982124;28;20059;-68
2021/05/12 04:41:36;;;;;;;30.13;22.55;;;;;;;12.72;69.59;99789.97;4995111;28;20073;-68
2021/05/12 04:44:03;;;;;;;;;;;;;;;12.72;69.57;99794.75;4995986;28;20385;-68
2021/05/12 04:46:30;;;;;;;30.88;20.77;;;;;;;12.68;69.32;99782.63;4985799;28;19926;-68
2021/05/12 04:49:00;;;;;;;28.83;21.77;;;;;;;12.70;69.07;99795.09;4975619;28;20492;-68
2021/05/12 04:51:29;;;;;;;27.27;20.60;;;;;;;12.74;68.46;99798.03;4976118;28;20055;-68
2021/05/12 04:53:56;;;;;;;27.42;21.85;;;;;;;12.71;68.42;99796.75;4975731;28;20065;-67
2021/05/12 04:56:25;;;;;;;27.55;19.13;;;;;;;12.75;68.25;99789.31;4984162;28;20055;-68
2021/05/12 04:58:55;;;;;;;26.98;18.17;;;;;;;12.78;68.10;99787.78;4994487;28;20066;-68
2021/05/12 05:01:21;;;;;;;25.70;18.45;;;;;;;12.83;67.21;99787.59;4994849;28;20054;-68
2021/05/12 05:03:49;;;;;;;26.80;18.85;;;;;;;12.86;67.02;99791.66;4994872;28;20054;-68
2021/05/12 05:06:17;;;;;;;29.40;19.13;;;;;;;12.89;66.67;99785.34;4986900;28;20054;-68
2021/05/12 05:08:44;;;;;;;25.13;19.83;;;;;;;12.85;67.04;99790.84;4975451;28;20476;-68
2021/05/12 05:11:11;;;;;;;24.40;17.30;;;;;;;12.91;66.31;99797.81;4974987;28;20535;-68
2021/05/12 05:13:38;;;;;;;26.50;18.75;;;;;;;12.93;66.49;99795.50;4981342;28;20054;-68
2021/05/12 05:16:08;;;;;;;27.23;19.08;;;;;;;12.98;66.50;99798.09;4975308;28;20054;-68
2021/05/12 05:18:36;;;;;;;27.30;18.25;;;;;;;12.98;66.76;99806.47;4975224;28;20078;-68
2021/05/12 05:21:04;;;;;;;24.05;16.83;;;;;;;13.00;65.94;99804.13;4974980;28;20042;-68
2021/05/12 05:23:34;;;;;;;25.52;17.55;;;;;;;13.04;65.46;99809.88;4989405;28;20054;-68
2021/05/12 05:26:01;;;;;;;24.20;16.17;;;;;;;13.08;64.77;99804.38;4975204;28;20059;-68
2021/05/12 05:28:28;;;;;;;27.05;16.50;;;;;;;13.12;64.83;99813.69;4974244;28;20066;-68
2021/05/12 05:30:55;;;;;;;23.13;15.57;;;;;;;13.22;64.28;99818.03;4975364;28;20419;-68
2021/05/12 05:33:22;;;;;;;23.15;15.48;;;;;;;13.26;64.14;99825.38;4975446;28;20058;-68
2021/05/12 05:35:49;;;;;;;25.13;17.17;;;;;;;13.30;64.08;99815.16;4980256;28;20065;-68
2021/05/12 05:38:16;;;;;;;23.45;15.68;;;;;;;13.40;63.87;99823.06;4976292;28;20480;-68
2021/05/12 05:40:43;;;;;;;24.33;15.98;;;;;;;13.47;62.78;99816.91;4977757;28;20047;-68
2021/05/12 05:43:10;;;;;;;21.42;15.25;;;;;;;13.60;62.37;99823.31;4977010;28;20495;-68
2021/05/12 05:45:41;;;;;;;21.67;15.43;;;;;;;13.71;61.63;99820.84;4979523;28;20053;-68
2021/05/12 05:48:08;;;;;;;23.27;15.75;;;;;;;13.79;61.36;99820.69;4992625;28;20051;-68
2021/05/12 05:50:36;;;;;;;18.75;14.85;;;;;;;13.95;60.35;99823.59;4973240;28;20416;-68
2021/05/12 05:53:02;;;;;;;21.98;13.73;;;;;;;14.06;60.02;99823.94;4975442;28;20046;-68
2021/05/12 05:55:30;;;;;;;19.73;14.10;;;;;;;14.24;59.32;99820.84;4973857;28;20061;-68
2021/05/12 05:58:00;;;;;;;22.90;14.27;;;;;;;14.39;58.75;99820.09;4980881;28;20057;-67
2021/05/12 06:00:27;;;;;;;19.83;13.75;;;;;;;14.55;58.38;99828.53;4975090;28;20054;-67
2021/05/12 06:02:54;;;;;;;18.35;13.52;;;;;;;14.72;57.60;99817.06;4979927;28;20059;-67
2021/05/12 06:05:21;;;;;;;20.20;13.68;;;;;;;14.91;56.65;99826.75;4974549;28;20054;-68
2021/05/12 06:07:47;;;;;;;18.88;12.80;;;;;;;15.04;56.78;99824.72;4975371;28;20066;-68
2021/05/12 06:10:14;;;;;;;21.10;13.50;;;;;;;15.12;56.04;99829.31;4975554;28;20061;-67
2021/05/12 06:12:41;;;;;;;18.05;12.82;;;;;;;15.28;55.65;99820.91;4977178;28;20042;-67
2021/05/12 06:15:11;;;;;;;17.98;12.45;;;;;;;15.36;55.01;99834.75;4976776;28;20054;-67
2021/05/12 06:17:38;;;;;;;15.95;12.43;;;;;;;15.55;54.95;99831.19;4978845;28;20054;-67
2021/05/12 06:20:07;;;;;;;16.00;11.85;;;;;;;15.69;53.31;99838.34;4984226;28;20054;-67
2021/05/12 06:22:34;;;;;;;19.42;11.80;;;;;;;15.67;53.67;99835.91;4975908;28;20086;-67
2021/05/12 06:25:02;;;;;;;17.77;12.18;;;;;;;15.69;53.35;99847.59;4976253;28;20061;-67
2021/05/12 06:27:29;;;;;;;15.13;10.93;;;;;;;15.73;53.18;99845.72;4973946;28;20047;-67
2021/05/12 06:29:55;;;;;;;18.13;12.38;;;;;;;15.66;53.08;99842.69;4973819;28;20054;-67
2021/05/12 06:32:23;;;;;;;17.83;11.77;;;;;;;15.76;53.46;99844.97;4973977;28;20081;-67
2021/05/12 06:34:50;;;;;;;16.42;10.68;;;;;;;15.88;53.68;99846.06;4985329;28;20077;-67
2021/05/12 06:37:18;;;;;;;16.70;11.90;;;;;;;16.07;53.61;99848.91;4993969;28;20046;-67
2021/05/12 06:39:44;;;;;;;16.17;11.57;;;;;;;16.17;51.92;99842.69;4981808;28;20058;-67
2021/05/12 06:42:11;;;;;;;14.82;11.15;;;;;;;16.19;52.38;99837.53;4961172;28;20067;-67
2021/05/12 06:44:38;;;;;;;17.70;11.60;;;;;;;16.36;52.18;99836.28;4959627;28;20484;-67
2021/05/12 06:47:05;;;;;;;17.15;11.85;;;;;;;16.49;52.30;99841.75;4971446;28;20412;-67
2021/05/12 06:49:33;;;;;;;17.70;11.20;;;;;;;16.56;51.12;99848.31;4971458;28;20055;-67
2021/05/12 06:51:59;;;;;;;15.63;11.38;;;;;;;16.61;51.17;99850.84;4972098;28;20051;-67
2021/05/12 06:54:26;;;;;;;16.33;10.73;;;;;;;16.86;50.71;99850.53;4973841;28;20077;-67
2021/05/12 06:56:53;;;;;;;19.55;11.32;;;;;;;17.02;50.50;99856.88;4969134;28;20062;-67
2021/05/12 06:59:20;;;;;;;15.73;10.52;;;;;;;17.20;50.96;99865.69;4969664;28;20098;-67
2021/05/12 07:01:47;;;;;;;16.65;10.50;;;;;;;17.40;49.71;99857.16;4983639;28;20389;-67
2021/05/12 07:04:14;;;;;;;15.70;9.93;;;;;;;17.60;48.81;99866.38;4971932;28;20059;-68
2021/05/12 07:06:42;;;;;;;16.13;9.98;;;;;;;17.82;47.58;99871.16;4972254;28;20058;-67
2021/05/12 07:09:09;;;;;;;17.48;9.40;;;;;;;18.10;46.41;99863.53;4971587;28;20484;-67
2021/05/12 07:11:36;;;;;;;14.65;8.85;;;;;;;18.09;45.89;99865.53;4973045;28;20051;-66
2021/05/12 07:14:06;;;;;;;17.83;9.25;;;;;;;18.11;46.96;99860.31;4972422;28;20066;-66
2021/05/12 07:16:33;;;;;;;12.27;8.35;;;;;;;18.04;45.67;99854.59;4971281;28;20070;-66
2021/05/12 07:19:00;;;;;;;13.52;8.52;;;;;;;17.98;46.58;99844.84;4971592;28;20054;-67
2021/05/12 07:21:27;;;;;;;13.40;7.93;;;;;;;17.84;47.54;99840.59;4971864;28;20393;-68
2021/05/12 07:23:57;;;;;;;14.77;8.25;;;;;;;17.77;48.00;99840.47;4976227;28;20061;-67
2021/05/12 07:26:25;;;;;;;12.20;7.53;;;;;;;17.82;48.22;99840.16;4970940;28;20054;-65
2021/05/12 07:28:52;;;;;;;11.57;7.30;;;;;;;18.32;45.16;99842.91;4971736;28;20051;-66
2021/05/12 07:31:20;;;;;;;13.50;7.50;;;;;;;19.56;43.09;99844.66;4970274;28;20062;-66
2021/05/12 07:33:47;;;;;;;11.50;6.72;;;;;;;20.85;40.00;99836.94;4971688;28;20081;-67
2021/05/12 07:36:14;;;;;;;9.75;6.78;;;;;;;21.75;36.72;99839.06;4970644;28;20065;-67
2021/05/12 07:38:41;;;;;;;12.38;6.78;;;;;;;22.56;35.45;99842.16;4975511;28;20507;-67
2021/05/12 07:41:09;;;;;;;11.13;6.53;;;;;;;23.19;34.56;99842.25;4973117;28;20055;-67
2021/05/12 07:43:36;;;;;;;8.27;5.80;;;;;;;23.93;31.77;99850.59;4988749;28;20062;-67
2021/05/12 07:46:03;;;;;;;10.77;5.82;;;;;;;24.45;31.32;99845.56;4974233;28;20070;-67
2021/05/12 07:48:30;;;;;;;10.60;5.78;;;;;;;25.24;29.63;99843.75;4975150;28;20048;-67
2021/05/12 07:50:57;;;;;;;10.23;5.25;;;;;;;25.90;29.19;99839.44;4974782;28;20054;-67
2021/05/12 07:53:27;;;;;;;9.55;5.95;;;;;;;26.55;28.01;99836.13;4975166;28;20058;-67
2021/05/12 07:55:54;;;;;;;8.90;5.78;;;;;;;27.18;26.80;99840.91;4974349;28;20073;-67
2021/05/12 07:58:24;;;;;;;8.15;5.28;;;;;;;27.88;25.48;99833.91;4990866;28;20050;-67
2021/05/12 08:00:52;;;;;;;8.30;4.80;;;;;;;28.68;24.37;99835.38;4975113;28;20070;-67
2021/05/12 08:03:18;;;;;;;8.75;4.70;;;;;;;29.41;23.18;99829.06;4975521;28;20054;-68
2021/05/12 08:05:47;;;;;;;8.25;4.28;;;;;;;30.12;22.17;99822.97;4974405;28;20508;-67
2021/05/12 08:08:16;;;;;;;8.30;4.00;;;;;;;30.53;22.08;99824.75;4974194;28;20050;-67
2021/05/12 08:10:43;;;;;;;9.13;4.00;;;;;;;29.29;23.65;99833.53;4968621;28;20053;-67
2021/05/12 08:13:10;;;;;;;8.38;3.95;;;;;;;28.99;23.66;99832.00;4977634;28;20070;-67
2021/05/12 08:15:38;;;;;;;6.95;3.75;;;;;;;30.59;21.84;99822.06;4974159;28;20054;-67
2021/05/12 08:18:05;;;;;;;6.25;2.95;;;;;;;29.76;21.81;99827.09;4968260;28;20055;-67
2021/05/12 08:20:35;;;;;;;6.85;3.45;;;;;;;28.77;23.01;99817.53;4971000;28;20050;-67
2021/05/12 08:23:02;;;;;;;6.40;3.47;;;;;;;28.02;25.11;99817.59;4974195;28;20082;-67
2021/05/12 08:25:28;;;;;;;7.93;3.38;;;;;;;28.40;24.23;99820.63;4974767;28;20058;-67
2021/05/12 08:27:56;;;;;;;6.90;3.72;;;;;;;27.74;25.46;99817.88;4976111;28;20469;-67
2021/05/12 08:30:25;;;;;;;8.75;3.53;;;;;;;28.82;23.05;99826.38;4976011;28;20416;-68
2021/05/12 08:32:56;;;;;;;6.22;3.60;;;;;;;29.93;21.84;99828.53;4975345;28;20066;-68
2021/05/12 08:35:23;;;;;;;6.60;3.58;;;;;;;30.69;21.63;99817.97;4978309;28;20051;-68
2021/05/12 08:37:51;;;;;;;7.15;3.50;;;;;;;31.57;20.61;99810.44;4975790;28;20062;-69
2021/05/12 08:40:20;;;;;;;5.60;3.05;;;;;;;31.26;19.82;99820.69;4980629;28;20062;-69
2021/05/12 08:42:49;;;;;;;8.20;3.20;;;;;;;31.44;20.01;99820.00;4976010;28;20047;-69
2021/05/12 08:45:15;;;;;;;;;;;;;;;30.54;20.54;99820.59;4976032;28;20047;-69
2021/05/12 08:47:45;;;;;;;5.78;2.80;;;;;;;29.90;21.22;99815.13;4975460;28;19922;-69
2021/05/12 08:50:15;;;;;;;6.93;2.90;;;;;;;29.04;22.52;99820.78;4974025;28;20055;-69
2021/05/12 08:52:43;;;;;;;8.00;3.13;;;;;;;28.43;24.29;99825.47;4991299;28;20050;-69
2021/05/12 08:55:13;;;;;;;7.83;2.93;;;;;;;28.87;23.73;99825.00;4985135;28;20054;-69
2021/05/12 08:57:40;;;;;;;5.78;2.67;;;;;;;28.13;24.14;99823.84;4976333;28;20062;-68
2021/05/12 09:00:08;;;;;;;5.97;2.67;;;;;;;29.42;23.45;99820.00;4974168;28;20058;-69
2021/05/12 09:02:35;;;;;;;6.78;2.70;;;;;;;28.68;23.37;99818.19;4980939;28;20053;-69
2021/05/12 09:05:05;;;;;;;4.82;3.10;;;;;;;28.11;25.14;99820.63;4972990;28;20059;-68
2021/05/12 09:07:33;;;;;;;6.13;3.00;;;;;;;27.38;25.19;99820.81;4974967;28;20473;-68
2021/05/12 09:10:00;;;;;;;5.70;3.30;;;;;;;26.61;25.83;99822.97;4974473;28;20512;-68
2021/05/12 09:12:41;;;;;;;6.82;3.45;;;;;;;25.77;28.53;99824.16;4970183;28;20054;-68
2021/05/12 09:15:11;;;;;;;7.85;2.97;;;;;;;26.18;27.66;99823.81;4974781;28;20486;-68
2021/05/12 09:17:40;;;;;;;5.78;2.90;;;;;;;28.90;24.08;99827.75;4977959;28;20054;-68
2021/05/12 09:20:29;;;;;;;3.70;2.88;;;;;;;30.89;21.65;99817.66;4969434;28;20054;-69
2021/05/12 09:23:12;;;;;;;5.43;3.00;;;;;;;32.33;19.49;99812.44;4979991;28;20397;-69
2021/05/12 09:25:40;;;;;;;6.78;3.25;;;;;;;33.87;17.91;99824.47;4974661;28;20063;-69
2021/05/12 09:28:13;;;;;;;7.47;2.90;;;;;;;33.68;17.65;99809.34;4974534;28;20053;-69
2021/05/12 09:30:41;;;;;;;4.90;2.55;;;;;;;32.33;18.85;99818.19;4974281;28;20055;-69
2021/05/12 09:33:09;;;;;;;6.53;2.77;;;;;;;30.87;19.70;99823.06;4981407;28;20046;-69
2021/05/12 09:35:43;;;;;;;6.20;2.80;;;;;;;29.41;21.11;99817.59;4978009;28;20478;-68
2021/05/12 09:38:19;;;;;;;4.63;2.15;;;;;;;28.09;22.45;99823.13;4977072;28;20066;-68
2021/05/12 09:40:59;;;;;;;5.47;2.75;;;;;;;27.20;23.69;99826.97;4982237;28;20054;-68
2021/05/12 09:43:28;;;;;;;7.43;2.83;;;;;;;26.49;23.66;99829.31;4988984;28;20054;-68
2021/05/12 09:46:14;;;;;;;5.85;2.70;;;;;;;27.54;23.18;99826.56;4970366;28;20062;-68
2021/05/12 09:48:47;;;;;;;5.30;2.80;;;;;;;28.92;21.61;99825.22;4969607;28;20066;-68
2021/05/12 09:51:18;;;;;;;6.32;2.53;;;;;;;28.63;21.44;99824.50;4973599;28;20062;-68
2021/05/12 09:54:09;;;;;;;6.28;2.70;;;;;;;27.77;22.59;99819.03;4982640;28;20050;-68
2021/05/12 09:56:43;;;;;;;7.03;2.75;;;;;;;27.24;23.77;99810.56;4955298;29;20050;-68
2021/05/12 09:59:15;;;;;;;6.93;2.35;;;;;;;26.55;25.42;99824.72;4956733;28;20062;-66
2021/05/12 10:01:50;;;;;;;7.40;3.20;;;;;;;26.13;26.05;99824.31;4970800;28;20051;-66
2021/05/12 10:04:37;;;;;;;6.18;3.13;;;;;;;25.81;26.58;99817.16;4973720;28;20051;-67
2021/05/12 10:07:14;;;;;;;4.90;2.78;;;;;;;25.52;26.79;99820.50;4971813;28;20485;-66
2021/05/12 10:09:43;;;;;;;6.25;3.33;;;;;;;25.24;27.39;99821.78;4970343;28;20054;-66
2021/05/12 10:12:14;;;;;;;;;;;;;;;25.01;27.35;99824.50;4977972;28;20054;-67
2021/05/12 10:14:43;;;;;;;5.20;3.08;;;;;;;24.89;27.00;99821.03;4972189;28;19922;-67
2021/05/12 10:17:13;;;;;;;4.78;2.70;;;;;;;24.32;28.01;99821.75;4966553;28;20043;-67
2021/05/12 10:19:40;;;;;;;;;;;;;;;23.64;28.59;99819.56;4960858;28;20054;-67
2021/05/12 10:22:07;;;;;;;3.85;2.50;;;;;;;23.09;29.84;99819.16;4974840;28;19929;-66
2021/05/12 10:24:36;;;;;;;4.07;2.33;;;;;;;22.58;31.25;99822.69;4977614;28;20506;-66
2021/05/12 10:27:09;;;;;;;6.07;2.70;;;;;;;22.16;31.09;99813.88;4971611;28;20074;-66
2021/05/12 10:29:38;;;;;;;6.45;2.83;;;;;;;21.68;32.05;99822.88;4970240;28;20051;-66
2021/05/12 10:32:21;;;;;;;7.65;2.60;;;;;;;21.44;32.39;99813.16;4969482;28;20046;-66
2021/05/12 10:34:58;;;;;;;5.53;2.70;;;;;;;21.40;32.69;99821.66;4960440;28;20055;-66
2021/05/12 10:37:28;;;;;;;6.63;3.15;;;;;;;21.44;33.43;99816.00;4974246;28;20074;-66
2021/05/12 10:40:00;;;;;;;4.45;3.10;;;;;;;21.96;32.34;99810.69;4973173;28;20381;-66
2021/05/12 10:42:56;;;;;;;5.05;3.35;;;;;;;22.32;32.06;99810.59;4974168;28;20055;-66
2021/05/12 10:46:03;;;;;;;6.90;3.20;;;;;;;22.95;31.20;99807.88;4971662;28;20054;-67
2021/05/12 10:48:41;;;;;;;6.25;3.33;;;;;;;23.15;30.52;99807.38;4965106;28;20063;-66
2021/05/12 10:51:12;;;;;;;7.43;3.85;;;;;;;23.77;29.63;99815.00;4971703;28;20369;-67
2021/05/12 10:53:44;;;;;;;5.78;3.40;;;;;;;24.56;29.01;99805.59;4973111;28;20051;-67
2021/05/12 10:56:14;;;;;;;9.13;4.47;;;;;;;24.65;28.83;99805.91;4972353;28;20055;-68
2021/05/12 10:58:55;;;;;;;;;;;;;;;24.48;30.45;99795.50;4974323;28;20070;-67
2021/05/12 11:01:23;;;;;;;5.07;3.40;;;;;;;24.21;30.04;99795.44;4982939;28;19922;-68
2021/05/12 11:04:14;;;;;;;6.97;3.88;;;;;;;24.08;29.41;99801.66;4979584;28;20067;-68
2021/05/12 11:07:01;;;;;;;6.18;3.85;;;;;;;23.50;29.68;99801.41;4986296;28;20373;-68
2021/05/12 11:09:45;;;;;;;5.65;3.95;;;;;;;22.91;29.96;99795.75;4977291;28;20051;-67
2021/05/12 11:12:23;;;;;;;5.25;3.28;;;;;;;22.58;31.87;99799.97;4964702;28;20408;-67
2021/05/12 11:15:10;;;;;;;6.22;3.47;;;;;;;22.31;31.68;99797.66;4976922;28;20061;-67
2021/05/12 11:17:53;;;;;;;5.60;3.95;;;;;;;21.92;31.92;99797.72;4978017;28;20046;-67
2021/05/12 11:20:23;;;;;;;5.05;3.33;;;;;;;21.69;33.12;99805.47;4970681;28;20136;-67
2021/05/12 11:22:51;;;;;;;4.80;3.28;;;;;;;21.46;33.38;99805.91;4977212;28;20043;-67
2021/05/12 11:25:27;;;;;;;6.82;3.50;;;;;;;21.14;34.07;99805.84;4976764;28;20050;-67
2021/05/12 11:33:40;;;;;;;5.07;3.65;;;;;;;20.79;35.93;99798.09;4981532;28;20085;-66
2021/05/12 11:36:11;;;;;;;5.63;3.50;;;;;;;20.77;35.14;99803.38;4978013;28;20050;-66
2021/05/12 11:38:40;;;;;;;5.07;3.45;;;;;;;20.69;35.91;99796.88;4986098;28;20047;-66
2021/05/12 11:41:08;;;;;;;8.40;3.90;;;;;;;20.61;35.83;99796.03;4978249;28;20065;-66